createdAt,value
2023-03-06T00:01:31.136Z,3.08
2023-03-06T00:04:35.986Z,2.20
2023-03-06T00:07:41.344Z,2.10
2023-03-06T00:10:45.952Z,2.22
2023-03-06T00:13:50.223Z,2.33
2023-03-06T00:16:56.085Z,2.10
2023-03-06T00:20:00.546Z,2.42
2023-03-06T00:23:05.054Z,2.08
2023-03-06T00:26:10.651Z,1.85
2023-03-06T00:29:17.416Z,1.98
2023-03-06T00:32:23.152Z,2.20
2023-03-06T00:35:27.436Z,2.40
2023-03-06T00:38:35.459Z,2.20
2023-03-06T00:41:40.002Z,2.20
2023-03-06T00:44:45.787Z,2.25
2023-03-06T00:47:50.557Z,2.10
2023-03-06T00:50:55.237Z,2.30
2023-03-06T00:53:59.923Z,2.00
2023-03-06T00:57:04.508Z,1.80
2023-03-06T01:00:11.936Z,2.30
2023-03-06T01:03:16.669Z,2.42
2023-03-06T01:06:21.460Z,2.20
2023-03-06T01:09:26.167Z,1.98
2023-03-06T01:12:31.697Z,1.90
2023-03-06T01:15:36.183Z,2.42
2023-03-06T01:18:41.588Z,2.30
2023-03-06T01:21:46.387Z,3.13
2023-03-06T01:24:50.844Z,2.17
2023-03-06T01:27:55.336Z,1.95
2023-03-06T01:31:04.226Z,2.20
2023-03-06T01:34:08.728Z,2.22
2023-03-06T01:37:13.485Z,2.55
2023-03-06T01:40:18.116Z,2.25
2023-03-06T01:43:28.945Z,2.22
2023-03-06T01:46:42.264Z,1.90
2023-03-06T01:49:47.107Z,2.03
2023-03-06T01:52:59.544Z,2.45
2023-03-06T01:56:04.728Z,2.40
2023-03-06T01:59:09.976Z,2.75
2023-03-06T02:02:15.310Z,2.78
2023-03-06T02:05:20.493Z,2.65
2023-03-06T02:08:24.791Z,2.42
2023-03-06T02:11:29.704Z,2.70
2023-03-06T02:14:34.707Z,2.72
2023-03-06T02:17:39.980Z,2.50
2023-03-06T02:20:51.703Z,2.72
2023-03-06T02:24:49.857Z,2.85
2023-03-06T02:27:55.563Z,2.70
2023-03-06T02:31:01.974Z,3.03
2023-03-06T02:34:15.484Z,3.03
2023-03-06T02:37:22.495Z,2.70
2023-03-06T02:40:27.296Z,2.85
2023-03-06T02:43:36.587Z,3.05
2023-03-06T02:46:41.265Z,3.22
2023-03-06T02:49:45.901Z,2.92
2023-03-06T02:52:50.431Z,3.05
2023-03-06T02:55:55.346Z,3.35
2023-03-06T02:58:59.961Z,3.33
2023-03-06T03:02:05.891Z,3.05
2023-03-06T03:05:11.812Z,3.65
2023-03-06T03:08:19.410Z,3.25
2023-03-06T03:11:23.896Z,4.03
2023-03-06T03:14:28.424Z,3.40
2023-03-06T03:17:37.105Z,3.72
2023-03-06T03:20:43.658Z,3.67
2023-03-06T03:23:48.446Z,4.53
2023-03-06T03:26:53.239Z,4.65
2023-03-06T03:30:01.189Z,4.05
2023-03-06T03:33:07.755Z,4.50
2023-03-06T03:36:13.203Z,4.40
2023-03-06T03:39:21.690Z,4.72
2023-03-06T03:42:26.318Z,4.95
2023-03-06T03:45:31.784Z,5.00
2023-03-06T03:48:36.719Z,5.93
2023-03-06T03:51:43.878Z,5.00
2023-03-06T03:54:48.937Z,4.85
2023-03-06T03:57:53.535Z,5.32
2023-03-06T04:00:57.961Z,5.22
2023-03-06T04:04:02.521Z,5.72
2023-03-06T04:07:13.433Z,6.18
2023-03-06T04:10:25.185Z,6.53
2023-03-06T04:13:31.299Z,6.60
2023-03-06T04:16:35.992Z,6.70
2023-03-06T04:19:40.669Z,6.90
2023-03-06T04:22:45.083Z,6.65
2023-03-06T04:25:50.582Z,7.32
2023-03-06T04:28:56.187Z,7.38
2023-03-06T04:32:00.827Z,7.32
2023-03-06T04:35:06.307Z,7.13
2023-03-06T04:38:16.814Z,6.93
2023-03-06T04:41:21.386Z,8.07
2023-03-06T04:44:26.187Z,8.25
2023-03-06T04:47:31.275Z,8.05
2023-03-06T04:50:37.973Z,8.13
2023-03-06T04:53:43.059Z,7.68
2023-03-06T04:56:47.971Z,7.35
2023-03-06T04:59:53.496Z,7.47
2023-03-06T05:03:00.420Z,6.80
2023-03-06T05:06:05.670Z,6.85
2023-03-06T05:09:10.229Z,6.57
2023-03-06T05:12:14.522Z,7.13
2023-03-06T05:15:19.250Z,6.68
2023-03-06T05:18:23.798Z,6.47
2023-03-06T05:21:28.623Z,6.82
2023-03-06T05:24:33.416Z,6.60
2023-03-06T05:27:38.426Z,6.75
2023-03-06T05:30:43.124Z,6.05
2023-03-06T05:33:47.828Z,6.90
2023-03-06T05:36:53.536Z,6.82
2023-03-06T05:39:57.896Z,6.72
2023-03-06T05:43:02.617Z,7.55
2023-03-06T05:46:08.312Z,7.15
2023-03-06T05:49:12.526Z,7.55
2023-03-06T05:52:17.565Z,7.63
2023-03-06T05:55:22.639Z,7.60
2023-03-06T05:58:28.572Z,7.18
2023-03-06T06:01:33.314Z,6.70
2023-03-06T06:04:37.510Z,7.63
2023-03-06T06:07:42.297Z,7.78
2023-03-06T06:10:46.865Z,7.35
2023-03-06T06:13:51.564Z,6.97
2023-03-06T06:16:56.513Z,6.53
2023-03-06T06:20:01.073Z,6.43
2023-03-06T06:23:06.092Z,7.28
2023-03-06T06:26:11.302Z,6.90
2023-03-06T06:29:16.204Z,6.43
2023-03-06T06:32:21.048Z,6.20
2023-03-06T06:35:26.733Z,5.82
2023-03-06T06:38:31.284Z,5.93
2023-03-06T06:41:53.675Z,6.05
2023-03-06T06:45:01.215Z,5.57
2023-03-06T06:48:06.144Z,5.20
2023-03-06T06:51:10.832Z,4.82
2023-03-06T06:54:15.147Z,5.85
2023-03-06T06:57:20.062Z,5.10
2023-03-06T07:00:24.915Z,4.63
2023-03-06T07:03:29.444Z,5.82
2023-03-06T07:06:33.739Z,4.72
2023-03-06T07:09:40.164Z,4.95
2023-03-06T07:12:44.837Z,4.57
2023-03-06T07:15:49.278Z,4.88
2023-03-06T07:18:54.006Z,4.63
2023-03-06T07:22:00.151Z,3.92
2023-03-06T07:25:06.136Z,4.28
2023-03-06T07:28:10.843Z,4.07
2023-03-06T07:31:15.676Z,3.90
2023-03-06T07:34:20.439Z,3.65
2023-03-06T07:37:24.939Z,4.32
2023-03-06T07:40:29.594Z,3.20
2023-03-06T07:43:34.073Z,3.22
2023-03-06T07:46:41.142Z,3.17
2023-03-06T07:49:45.739Z,2.90
2023-03-06T07:52:51.302Z,2.50
2023-03-06T07:55:56.881Z,3.35
2023-03-06T07:59:02.229Z,3.15
2023-03-06T08:02:07.147Z,2.50
2023-03-06T08:05:15.716Z,2.80
2023-03-06T08:08:20.117Z,2.42
2023-03-06T08:11:27.319Z,2.40
2023-03-06T08:14:35.144Z,2.17
2023-03-06T08:17:40.259Z,1.70
2023-03-06T08:20:44.876Z,1.50
2023-03-06T08:23:49.538Z,1.92
2023-03-06T08:26:53.980Z,1.42
2023-03-06T08:29:58.707Z,1.27
2023-03-06T08:33:03.192Z,1.13
2023-03-06T08:36:07.941Z,1.20
2023-03-06T08:39:14.124Z,1.20
2023-03-06T08:42:18.713Z,1.10
2023-03-06T08:45:23.793Z,1.02
2023-03-06T08:48:28.996Z,1.00
2023-03-06T08:51:33.510Z,0.70
2023-03-06T08:54:39.223Z,0.70
2023-03-06T08:57:44.092Z,0.90
2023-03-06T09:00:48.993Z,0.70
2023-03-06T09:03:56.876Z,0.93
2023-03-06T09:07:01.933Z,0.93
2023-03-06T09:10:08.436Z,0.80
2023-03-06T09:13:12.968Z,0.50
2023-03-06T09:16:17.662Z,0.63
2023-03-06T09:19:22.162Z,0.50
2023-03-06T09:22:26.576Z,0.52
2023-03-06T09:25:31.125Z,0.70
2023-03-06T09:28:38.884Z,0.50
2023-03-06T09:31:44.417Z,0.68
2023-03-06T09:34:49.788Z,0.70
2023-03-06T09:37:54.622Z,0.50
2023-03-06T09:41:01.902Z,0.65
2023-03-06T09:44:16.168Z,0.50
2023-03-06T09:47:38.670Z,0.50
2023-03-06T09:50:55.093Z,0.57
2023-03-06T09:54:14.902Z,0.57
2023-03-06T09:57:35.343Z,0.57
2023-03-06T10:00:44.270Z,0.50
2023-03-06T10:04:28.591Z,0.40
2023-03-06T10:07:50.897Z,0.60
2023-03-06T10:11:02.517Z,0.40
2023-03-06T10:14:44.269Z,0.43
2023-03-06T10:17:50.054Z,0.50
2023-03-06T10:21:18.810Z,0.40
2023-03-06T10:25:03.225Z,0.50
2023-03-06T10:28:44.673Z,0.38
2023-03-06T10:32:03.091Z,0.50
2023-03-06T10:35:21.801Z,0.50
2023-03-06T10:38:32.756Z,0.40
2023-03-06T10:41:38.385Z,0.50
2023-03-06T10:44:43.531Z,0.40
2023-03-06T10:47:48.464Z,0.20
2023-03-06T10:51:17.780Z,0.40
2023-03-06T10:54:23.124Z,0.30
2023-03-06T10:57:31.002Z,0.40
2023-03-06T11:00:36.182Z,0.40
2023-03-06T11:03:41.135Z,0.40
2023-03-06T11:06:45.947Z,0.50
2023-03-06T11:10:18.989Z,0.40
2023-03-06T11:13:27.893Z,0.40
2023-03-06T11:16:32.383Z,0.40
2023-03-06T11:19:37.305Z,0.30
2023-03-06T11:22:49.091Z,0.45
2023-03-06T11:26:03.873Z,0.38
2023-03-06T11:29:33.074Z,0.35
2023-03-06T11:32:50.397Z,0.52
2023-03-06T11:36:09.619Z,0.40
2023-03-06T11:39:36.214Z,0.40
2023-03-06T11:42:59.990Z,0.40
2023-03-06T11:46:26.743Z,0.40
2023-03-06T11:49:40.094Z,0.40
2023-03-06T11:53:06.680Z,0.40
2023-03-06T11:56:43.532Z,0.40
2023-03-06T12:00:05.896Z,0.45
2023-03-06T12:03:47.135Z,0.60
2023-03-06T12:07:27.690Z,0.40
2023-03-06T12:10:51.588Z,0.60
2023-03-06T12:14:32.613Z,0.68
2023-03-06T12:18:00.897Z,0.50
2023-03-06T12:21:29.085Z,0.40
2023-03-06T12:24:55.383Z,0.50
2023-03-06T12:28:15.286Z,0.50
2023-03-06T12:31:42.512Z,0.57
2023-03-06T12:35:11.399Z,0.50
2023-03-06T12:38:55.266Z,0.60
2023-03-06T12:42:23.223Z,0.70
2023-03-06T12:45:37.614Z,0.68
2023-03-06T12:51:49.018Z,0.60
2023-03-06T12:54:54.804Z,0.75
2023-03-06T12:58:28.663Z,0.70
2023-03-06T13:02:02.417Z,0.55
2023-03-06T13:05:24.824Z,0.98
2023-03-06T13:08:58.102Z,1.38
2023-03-06T13:12:45.660Z,1.10
2023-03-06T13:16:30.010Z,1.00
2023-03-06T13:19:35.268Z,0.82
2023-03-06T13:22:45.335Z,0.80
2023-03-06T13:25:51.223Z,0.80
2023-03-06T13:28:58.132Z,0.70
2023-03-06T13:32:02.957Z,0.50
2023-03-06T13:35:33.451Z,0.77
2023-03-06T13:38:41.074Z,0.82
2023-03-06T13:41:57.839Z,0.80
2023-03-06T13:45:18.014Z,0.90
2023-03-06T13:48:44.758Z,0.80
2023-03-06T13:51:52.852Z,0.93
2023-03-06T13:55:24.735Z,1.00
2023-03-06T13:58:57.043Z,1.10
2023-03-06T14:02:55.949Z,1.50
2023-03-06T14:06:00.662Z,1.30
2023-03-06T14:09:13.717Z,1.13
2023-03-06T14:12:35.149Z,0.98
2023-03-06T14:15:53.313Z,1.30
2023-03-06T14:19:00.590Z,1.70
2023-03-06T14:22:12.449Z,1.52
2023-03-06T14:25:28.577Z,1.60
2023-03-06T14:28:35.684Z,1.55
2023-03-06T14:31:43.198Z,2.22
2023-03-06T14:34:48.656Z,2.05
2023-03-06T14:38:02.246Z,2.20
2023-03-06T14:44:34.593Z,2.55
2023-03-06T14:47:39.291Z,3.00
2023-03-06T14:50:54.527Z,2.88
2023-03-06T14:54:02.513Z,2.88
2023-03-06T14:57:14.063Z,3.15
2023-03-06T15:00:22.967Z,2.95
2023-03-06T15:03:48.274Z,3.47
2023-03-06T15:06:56.395Z,3.45
2023-03-06T15:10:01.103Z,3.78
2023-03-06T15:13:33.561Z,3.90
2023-03-06T15:16:38.217Z,3.58
2023-03-06T15:19:43.392Z,3.60
2023-03-06T15:22:50.860Z,3.42
2023-03-06T15:26:03.296Z,2.75
2023-03-06T15:29:10.973Z,2.72
2023-03-06T15:32:34.865Z,2.50
2023-03-06T15:35:39.463Z,2.60
2023-03-06T15:38:48.086Z,2.35
2023-03-06T15:42:00.671Z,2.33
2023-03-06T15:45:18.929Z,2.20
2023-03-06T15:48:23.564Z,2.40
2023-03-06T15:51:31.696Z,2.30
2023-03-06T15:54:36.739Z,2.70
2023-03-06T15:58:16.816Z,2.90
2023-03-06T16:01:21.686Z,2.35
2023-03-06T16:04:26.856Z,2.53
2023-03-06T16:07:31.294Z,3.38
2023-03-06T16:10:39.431Z,4.70
2023-03-06T16:13:45.263Z,4.70
2023-03-06T16:16:53.993Z,4.78
2023-03-06T16:19:59.295Z,4.95
2023-03-06T16:23:07.929Z,5.57
2023-03-06T16:26:30.645Z,6.85
2023-03-06T16:29:35.658Z,6.10
2023-03-06T16:32:40.794Z,6.72
2023-03-06T16:35:47.233Z,6.65
2023-03-06T16:38:52.749Z,5.78
2023-03-06T16:41:57.503Z,5.60
2023-03-06T16:45:02.468Z,6.38
2023-03-06T16:48:14.002Z,5.28
2023-03-06T16:51:21.494Z,4.65
2023-03-06T16:54:26.378Z,5.18
2023-03-06T16:57:35.595Z,5.13
2023-03-06T17:00:40.759Z,6.35
2023-03-06T17:03:46.073Z,5.43
2023-03-06T17:06:52.700Z,5.68
2023-03-06T17:09:57.403Z,5.53
2023-03-06T17:13:02.173Z,7.25
2023-03-06T17:16:11.738Z,7.80
2023-03-06T17:19:16.293Z,9.82
2023-03-06T17:22:21.220Z,8.18
2023-03-06T17:25:26.180Z,8.73
2023-03-06T17:28:30.712Z,8.30
2023-03-06T17:31:35.529Z,9.07
2023-03-06T17:34:40.267Z,8.57
2023-03-06T17:37:44.895Z,9.25
2023-03-06T17:40:49.368Z,9.70
2023-03-06T17:43:58.261Z,9.13
2023-03-06T17:47:02.996Z,10.00
2023-03-06T17:50:08.765Z,10.90
2023-03-06T17:53:13.231Z,10.15
2023-03-06T17:56:18.276Z,10.57
2023-03-06T17:59:22.651Z,10.15
2023-03-06T18:02:27.449Z,8.93
2023-03-06T18:05:32.198Z,9.25
2023-03-06T18:08:38.446Z,10.95
2023-03-06T18:11:43.060Z,10.82
2023-03-06T18:14:48.595Z,11.77
2023-03-06T18:17:53.297Z,12.05
2023-03-06T18:20:57.961Z,11.95
2023-03-06T18:24:02.634Z,11.93
2023-03-06T18:27:07.072Z,12.68
2023-03-06T18:30:11.957Z,13.52
2023-03-06T18:33:16.413Z,13.65
2023-03-06T18:36:24.324Z,14.15
2023-03-06T18:39:28.862Z,14.18
2023-03-06T18:42:33.610Z,14.52
2023-03-06T18:45:38.222Z,15.73
2023-03-06T18:48:43.278Z,17.02
2023-03-06T18:51:50.872Z,16.02
2023-03-06T18:54:55.836Z,14.10
2023-03-06T18:58:00.554Z,14.32
2023-03-06T19:01:08.364Z,17.08
2023-03-06T19:04:12.868Z,17.05
2023-03-06T19:07:17.654Z,15.80
2023-03-06T19:10:22.633Z,16.05
2023-03-06T19:13:27.388Z,17.17
2023-03-06T19:16:32.214Z,15.65
2023-03-06T19:19:36.660Z,15.98
2023-03-06T19:22:40.951Z,15.65
2023-03-06T19:25:56.984Z,14.73
2023-03-06T19:29:01.364Z,14.43
2023-03-06T19:32:06.313Z,15.52
2023-03-06T19:35:11.131Z,15.50
2023-03-06T19:38:15.915Z,14.77
2023-03-06T19:41:20.392Z,13.82
2023-03-06T19:44:25.275Z,15.07
2023-03-06T19:47:30.146Z,15.55
2023-03-06T19:50:34.664Z,13.73
2023-03-06T19:53:40.107Z,15.93
2023-03-06T19:56:44.840Z,15.98
2023-03-06T19:59:51.460Z,14.00
2023-03-06T20:02:56.979Z,13.98
2023-03-06T20:06:02.845Z,12.35
2023-03-06T20:09:09.096Z,12.30
2023-03-06T20:12:14.538Z,13.90
2023-03-06T20:15:22.147Z,12.85
2023-03-06T20:18:26.654Z,13.57
2023-03-06T20:21:38.066Z,12.48
2023-03-06T20:24:42.645Z,13.05
2023-03-06T20:27:47.123Z,13.20
2023-03-06T20:30:51.994Z,12.20
2023-03-06T20:33:59.592Z,12.73
2023-03-06T20:37:03.884Z,12.95
2023-03-06T20:40:10.029Z,14.25
2023-03-06T20:43:14.525Z,14.85
2023-03-06T20:46:20.501Z,14.10
2023-03-06T20:49:27.075Z,13.88
2023-03-06T20:52:31.594Z,13.30
2023-03-06T20:55:37.680Z,14.27
2023-03-06T20:58:42.546Z,11.82
2023-03-06T21:01:47.975Z,12.32
2023-03-06T21:04:52.917Z,12.82
2023-03-06T21:07:57.270Z,12.40
2023-03-06T21:11:01.902Z,12.27
2023-03-06T21:14:07.096Z,11.88
2023-03-06T21:17:13.842Z,12.27
2023-03-06T21:20:19.010Z,10.35
2023-03-06T21:23:23.617Z,11.80
2023-03-06T21:26:30.765Z,11.30
2023-03-06T21:29:35.499Z,13.10
2023-03-06T21:32:41.151Z,12.55
2023-03-06T21:35:47.255Z,11.02
2023-03-06T21:38:52.998Z,10.98
2023-03-06T21:41:57.542Z,10.35
2023-03-06T21:45:07.841Z,10.93
2023-03-06T21:48:13.310Z,10.48
2023-03-06T21:51:20.756Z,11.73
2023-03-06T21:54:26.865Z,11.25
2023-03-06T21:57:31.328Z,10.70
2023-03-06T22:00:36.571Z,10.20
2023-03-06T22:03:41.459Z,10.00
2023-03-06T22:06:46.270Z,12.05
2023-03-06T22:09:53.635Z,11.38
2023-03-06T22:12:58.141Z,10.93
2023-03-06T22:16:03.069Z,10.55
2023-03-06T22:19:07.816Z,10.65
2023-03-06T22:22:12.429Z,11.27
2023-03-06T22:25:17.411Z,11.07
2023-03-06T22:28:21.960Z,10.80
2023-03-06T22:31:28.776Z,10.43
2023-03-06T22:34:33.662Z,11.68
2023-03-06T22:37:38.616Z,11.15
2023-03-06T22:40:42.960Z,9.73
2023-03-06T22:43:47.436Z,10.35
2023-03-06T22:46:52.145Z,10.48
2023-03-06T22:49:56.826Z,10.20
2023-03-06T22:53:01.434Z,10.27
2023-03-06T22:56:11.763Z,9.52
2023-03-06T22:59:16.377Z,8.27
2023-03-06T23:02:20.899Z,8.55
2023-03-06T23:05:25.884Z,8.52
2023-03-06T23:08:31.118Z,7.55
2023-03-06T23:11:35.452Z,7.50
2023-03-06T23:14:58.737Z,7.45
2023-03-06T23:18:21.779Z,7.47
2023-03-06T23:21:45.212Z,6.60
2023-03-06T23:25:09.303Z,6.55
2023-03-06T23:28:13.731Z,5.93
2023-03-06T23:31:23.045Z,5.90
2023-03-06T23:34:27.564Z,5.85
2023-03-06T23:37:31.952Z,5.38
2023-03-06T23:40:37.771Z,5.15
2023-03-06T23:43:42.658Z,5.00
2023-03-06T23:46:47.112Z,4.35
2023-03-06T23:49:51.747Z,4.65
2023-03-06T23:52:56.318Z,5.20
2023-03-06T23:56:00.986Z,4.65
2023-03-06T23:59:06.018Z,4.68
